createdAt,value
2022-12-31T00:01:47.972Z,6.30
2022-12-31T00:04:18.423Z,6.40
2022-12-31T00:06:49.438Z,6.40
2022-12-31T00:09:19.768Z,6.40
2022-12-31T00:11:50.045Z,6.40
2022-12-31T00:14:22.147Z,6.40
2022-12-31T00:16:52.653Z,6.50
2022-12-31T00:19:23.062Z,6.50
2022-12-31T00:21:53.128Z,6.40
2022-12-31T00:24:23.246Z,6.50
2022-12-31T00:26:53.468Z,6.40
2022-12-31T00:29:25.668Z,6.40
2022-12-31T00:31:55.800Z,6.50
2022-12-31T00:34:26.243Z,6.50
2022-12-31T00:36:56.519Z,6.60
2022-12-31T00:39:26.600Z,6.60
2022-12-31T00:41:56.664Z,6.60
2022-12-31T17:43:09.721Z,6.90
2022-12-31T17:45:40.594Z,7.00
2022-12-31T17:59:41.654Z,7.10
2022-12-31T18:02:15.367Z,7.10
2022-12-31T18:04:48.744Z,7.10
2022-12-31T18:07:18.961Z,7.10
2022-12-31T18:09:49.196Z,7.10
2022-12-31T18:12:20.445Z,7.10
2022-12-31T18:14:52.282Z,7.20
2022-12-31T18:17:22.483Z,7.10
2022-12-31T18:20:04.759Z,7.10
2022-12-31T18:22:35.801Z,7.10
2022-12-31T18:25:07.957Z,7.10
2022-12-31T18:27:38.786Z,7.00
2022-12-31T18:30:12.762Z,7.00
2022-12-31T18:32:44.116Z,7.00
2022-12-31T18:35:40.792Z,7.00
2022-12-31T18:38:13.526Z,7.00
2022-12-31T18:40:47.291Z,7.00
2022-12-31T18:43:21.297Z,7.00
2022-12-31T18:45:54.173Z,7.00
2022-12-31T18:48:24.533Z,7.00
2022-12-31T18:50:55.019Z,7.00
2022-12-31T18:53:26.092Z,7.10
2022-12-31T18:55:57.885Z,7.10
2022-12-31T18:58:28.095Z,7.10
2022-12-31T19:01:00.230Z,7.20
2022-12-31T19:03:31.267Z,7.20
2022-12-31T19:06:01.599Z,7.20
2022-12-31T19:08:33.235Z,7.20
2022-12-31T19:11:04.672Z,7.20
2022-12-31T19:13:34.895Z,7.20
2022-12-31T19:16:08.949Z,7.20
2022-12-31T19:18:39.636Z,7.10
2022-12-31T19:21:15.337Z,7.10
2022-12-31T19:23:45.877Z,7.00
2022-12-31T19:26:18.558Z,6.90
2022-12-31T19:28:49.506Z,6.80
2022-12-31T19:31:21.689Z,6.60
2022-12-31T19:33:51.847Z,6.60
2022-12-31T19:36:23.143Z,6.60
2022-12-31T19:38:53.344Z,6.50
2022-12-31T19:41:23.540Z,6.40
2022-12-31T19:43:53.630Z,6.40
2022-12-31T19:46:26.441Z,6.40
2022-12-31T19:48:56.676Z,6.40
2022-12-31T19:51:26.895Z,6.40
2022-12-31T19:53:57.020Z,6.40
2022-12-31T19:56:27.157Z,6.30
2022-12-31T19:58:57.327Z,6.20
2022-12-31T20:01:35.288Z,6.10
2022-12-31T20:04:05.550Z,6.00
2022-12-31T20:06:35.959Z,6.00
2022-12-31T20:09:09.951Z,5.90
2022-12-31T20:11:40.175Z,5.90
2022-12-31T20:14:10.467Z,5.90
2022-12-31T20:16:42.565Z,5.80
2022-12-31T20:19:12.901Z,5.70
2022-12-31T20:21:45.204Z,5.70
2022-12-31T20:24:15.424Z,5.60
2022-12-31T20:26:45.719Z,5.60
2022-12-31T20:29:16.007Z,5.60
2022-12-31T20:31:47.955Z,5.50
2022-12-31T20:34:18.194Z,5.50
2022-12-31T20:36:48.534Z,5.50
2022-12-31T20:39:18.718Z,5.40
2022-12-31T20:41:49.027Z,5.40
2022-12-31T20:44:19.234Z,5.40
2022-12-31T20:46:51.603Z,5.30
2022-12-31T20:49:44.280Z,5.30
2022-12-31T20:52:11.827Z,5.30
2022-12-31T20:54:41.931Z,5.20
2022-12-31T20:57:12.086Z,5.20
2022-12-31T20:59:42.438Z,5.30
2022-12-31T21:02:21.311Z,5.30
2022-12-31T21:04:52.045Z,5.30
2022-12-31T21:07:22.446Z,5.30
2022-12-31T21:09:52.749Z,5.30
2022-12-31T21:12:39.937Z,5.30
2022-12-31T21:15:11.594Z,5.30
2022-12-31T21:17:43.395Z,5.30
2022-12-31T21:20:14.370Z,5.30
2022-12-31T21:22:44.487Z,5.30
2022-12-31T21:25:14.947Z,5.20
2022-12-31T21:27:45.065Z,5.20
2022-12-31T21:30:19.099Z,5.20
2022-12-31T21:32:51.557Z,5.20
2022-12-31T21:38:11.931Z,5.30
2022-12-31T21:40:42.390Z,5.30
2022-12-31T21:43:12.598Z,5.30
2022-12-31T21:45:42.876Z,5.30
2022-12-31T21:48:24.053Z,5.30
2022-12-31T21:50:55.141Z,5.30
2022-12-31T21:53:34.141Z,5.20
2022-12-31T21:56:15.124Z,5.20
2022-12-31T21:58:47.975Z,5.10
2022-12-31T22:01:40.167Z,5.00
2022-12-31T22:04:43.229Z,4.90
2022-12-31T22:07:07.039Z,4.90
2022-12-31T22:09:37.534Z,4.80
2022-12-31T22:12:08.517Z,4.80
2022-12-31T22:14:38.658Z,4.80
2022-12-31T22:17:08.705Z,4.80
2022-12-31T22:20:00.904Z,4.80
2022-12-31T22:22:30.599Z,4.70
2022-12-31T22:25:01.541Z,4.70
2022-12-31T22:27:31.893Z,4.80
2022-12-31T22:30:02.070Z,4.70
2022-12-31T22:32:32.120Z,4.70
2022-12-31T22:35:03.984Z,4.70
2022-12-31T22:40:24.591Z,4.70
2022-12-31T22:42:55.404Z,4.70
2022-12-31T22:45:25.773Z,4.70
2022-12-31T22:47:55.889Z,4.80
2022-12-31T22:50:27.843Z,4.80
2022-12-31T22:52:58.041Z,4.70
2022-12-31T22:55:44.019Z,4.70
2022-12-31T22:58:14.546Z,4.70
2022-12-31T23:00:45.444Z,4.70
2022-12-31T23:03:15.809Z,4.70
2022-12-31T23:05:49.939Z,4.70
2022-12-31T23:08:23.375Z,4.70
2022-12-31T23:11:06.386Z,4.70
2022-12-31T23:13:57.185Z,4.70
2022-12-31T23:16:45.496Z,4.70
2022-12-31T23:19:33.320Z,4.70
2022-12-31T23:22:22.427Z,4.70
2022-12-31T23:24:52.512Z,4.70
2022-12-31T23:27:22.677Z,4.70
2022-12-31T23:29:53.009Z,4.70
2022-12-31T23:32:23.144Z,4.70
2022-12-31T23:34:54.214Z,4.70
2022-12-31T23:37:26.171Z,4.70
2022-12-31T23:39:56.290Z,4.70
2022-12-31T23:42:26.451Z,4.70
2022-12-31T23:44:56.534Z,4.70
2022-12-31T23:47:26.972Z,4.60
2022-12-31T23:52:09.136Z,4.60
2022-12-31T23:54:39.255Z,4.60
2022-12-31T23:57:09.364Z,4.60
2022-12-31T23:59:39.648Z,4.50
